Time;durP1;ratioP1;P1;durP2;ratioP2;P2;SDS_P1;SDS_P2;PMS_P1;PMS_P2;Temp;Humidity;BMP_temperature;BMP_pressure;BME280_temperature;BME280_humidity;BME280_pressure;Samples;Min_cycle;Max_cycle;Signal;HPM_P1;HPM_P2
2022/03/09 00:02:31;;;;;;;7.60;4.22;;;-2.80;99.90;;;;;;5085958;28;20039;-59
2022/03/09 00:05:56;;;;;;;8.35;4.82;;;-2.90;99.90;;;;;;5067481;28;20075;-59
2022/03/09 00:09:21;;;;;;;7.50;3.90;;;-2.90;99.90;;;;;;5067999;28;20032;-59
2022/03/09 00:12:47;;;;;;;8.15;3.55;;;-2.90;99.90;;;;;;5075562;28;20535;-59
2022/03/09 00:16:12;;;;;;;7.07;2.95;;;-3.00;99.90;;;;;;5065700;28;20036;-59
2022/03/09 00:19:37;;;;;;;8.02;3.75;;;-3.00;99.90;;;;;;5059702;28;20510;-63
2022/03/09 00:23:03;;;;;;;10.48;3.95;;;-3.00;99.90;;;;;;5080697;28;20071;-59
2022/03/09 00:26:28;;;;;;;5.55;2.50;;;-3.10;99.90;;;;;;5076110;28;20094;-59
2022/03/09 00:29:54;;;;;;;6.82;3.58;;;-3.10;99.90;;;;;;5062612;28;20048;-58
2022/03/09 00:33:19;;;;;;;7.72;3.38;;;-3.10;99.90;;;;;;5067275;28;20098;-59
2022/03/09 00:36:44;;;;;;;6.90;2.60;;;-3.20;99.90;;;;;;5063751;28;20523;-59
2022/03/09 00:40:10;;;;;;;9.25;3.08;;;-3.20;99.90;;;;;;5051656;28;20079;-59
2022/03/09 00:43:36;;;;;;;7.28;2.78;;;-3.20;99.90;;;;;;5071895;28;20052;-59
2022/03/09 00:47:00;;;;;;;5.35;2.72;;;-3.30;99.90;;;;;;5081956;28;20089;-59
2022/03/09 00:50:26;;;;;;;4.60;2.10;;;-3.30;99.90;;;;;;5065914;28;20060;-59
2022/03/09 00:53:51;;;;;;;6.55;3.08;;;-3.30;99.90;;;;;;5072003;28;20424;-59
2022/03/09 00:57:16;;;;;;;5.30;2.70;;;-3.30;99.90;;;;;;5065279;28;20053;-59
2022/03/09 01:00:42;;;;;;;6.63;3.15;;;-3.30;99.90;;;;;;5060094;28;20048;-59
2022/03/09 01:04:07;;;;;;;9.40;3.17;;;-3.40;99.90;;;;;;5045695;28;20041;-59
2022/03/09 01:07:33;;;;;;;4.40;2.28;;;-3.40;99.90;;;;;;5068149;28;20521;-59
2022/03/09 01:10:58;;;;;;;4.78;2.40;;;-3.40;99.90;;;;;;5065079;28;20044;-59
2022/03/09 01:14:23;;;;;;;5.53;3.08;;;-3.40;99.90;;;;;;5065960;28;20101;-58
2022/03/09 01:17:49;;;;;;;6.05;2.72;;;-3.30;99.90;;;;;;5044800;28;20115;-59
2022/03/09 01:21:14;;;;;;;6.45;2.55;;;-3.40;99.90;;;;;;5062692;28;20044;-59
2022/03/09 01:24:39;;;;;;;8.50;3.10;;;-3.40;99.90;;;;;;5067084;28;20507;-58
2022/03/09 01:28:05;;;;;;;6.80;2.70;;;-3.50;99.90;;;;;;5061654;28;20102;-59
2022/03/09 01:31:30;;;;;;;6.20;2.40;;;-3.50;99.90;;;;;;5059983;28;20039;-58
2022/03/09 01:34:55;;;;;;;4.05;2.15;;;-3.60;99.90;;;;;;5080822;28;20434;-58
2022/03/09 01:38:21;;;;;;;4.68;2.38;;;-3.60;99.90;;;;;;5081964;28;20669;-59
2022/03/09 01:41:46;;;;;;;4.07;2.28;;;-3.60;99.90;;;;;;5073672;28;20032;-59
2022/03/09 01:45:12;;;;;;;3.72;1.92;;;-3.60;99.90;;;;;;5077509;28;20040;-59
2022/03/09 01:48:37;;;;;;;3.40;2.17;;;-3.60;99.90;;;;;;5074745;28;20119;-59
2022/03/09 01:52:02;;;;;;;5.03;2.60;;;-3.60;99.90;;;;;;5071749;28;20040;-58
2022/03/09 01:55:28;;;;;;;6.93;2.75;;;-3.60;99.90;;;;;;5071565;28;20694;-58
2022/03/09 01:58:53;;;;;;;4.75;2.17;;;-3.70;99.90;;;;;;5044836;28;20551;-59
2022/03/09 02:02:18;;;;;;;6.53;2.65;;;-3.60;99.90;;;;;;5064385;28;20076;-59
2022/03/09 02:05:44;;;;;;;4.10;2.30;;;-3.70;99.90;;;;;;5074822;28;20089;-58
2022/03/09 02:12:33;;;;;;;4.43;2.40;;;-3.70;99.90;;;;;;5063767;28;20420;-58
2022/03/09 02:15:59;;;;;;;8.25;3.20;;;-3.80;99.90;;;;;;5080475;28;20123;-58
2022/03/09 02:19:24;;;;;;;4.53;2.42;;;-3.80;99.90;;;;;;5077398;28;20043;-57
2022/03/09 02:22:53;;;;;;;4.55;2.75;;;-3.80;99.90;;;;;;5084342;28;20036;-58
2022/03/09 02:26:16;;;;;;;4.45;2.92;;;-3.90;99.90;;;;;;5080041;28;20048;-59
2022/03/09 02:29:41;;;;;;;6.05;3.00;;;-3.90;99.90;;;;;;5081148;28;20043;-59
2022/03/09 02:33:06;;;;;;;4.13;2.10;;;-4.00;99.90;;;;;;5081046;28;20047;-58
2022/03/09 02:36:32;;;;;;;4.05;2.10;;;-4.00;99.90;;;;;;5070691;28;20067;-58
2022/03/09 02:39:57;;;;;;;6.88;2.25;;;-4.00;99.90;;;;;;5080809;28;20055;-58
2022/03/09 02:43:23;;;;;;;4.47;2.08;;;-4.00;99.90;;;;;;5080532;28;20530;-58
2022/03/09 02:46:48;;;;;;;5.35;2.58;;;-4.00;99.90;;;;;;5070345;28;20036;-59
2022/03/09 02:50:13;;;;;;;4.78;2.40;;;-4.00;99.90;;;;;;5080681;28;20051;-58
2022/03/09 02:53:38;;;;;;;4.70;2.28;;;-4.10;99.90;;;;;;5080614;28;20464;-58
2022/03/09 02:57:04;;;;;;;4.80;2.45;;;-4.10;99.90;;;;;;5073809;28;20036;-58
2022/03/09 03:00:29;;;;;;;4.28;2.72;;;-4.10;99.90;;;;;;5088103;28;20036;-58
2022/03/09 03:03:55;;;;;;;4.57;2.10;;;-4.10;99.90;;;;;;5091541;28;20395;-58
2022/03/09 03:07:20;;;;;;;5.55;2.53;;;-4.20;99.90;;;;;;5069116;28;20036;-58
2022/03/09 03:10:45;;;;;;;3.08;2.00;;;-4.20;99.90;;;;;;5078446;28;20083;-58
2022/03/09 03:14:11;;;;;;;4.00;2.28;;;-4.20;99.90;;;;;;5091106;28;20040;-57
2022/03/09 03:17:36;;;;;;;4.22;2.53;;;-4.20;99.90;;;;;;5083179;28;20111;-58
2022/03/09 03:21:01;;;;;;;4.05;2.28;;;-4.20;99.90;;;;;;5078190;28;20735;-58
2022/03/09 03:24:28;;;;;;;4.60;2.50;;;-4.30;99.90;;;;;;5052541;28;20041;-57
2022/03/09 03:27:52;;;;;;;5.80;3.08;;;-4.30;99.90;;;;;;5085125;28;20043;-58
2022/03/09 03:31:17;;;;;;;4.30;2.33;;;-4.30;99.90;;;;;;5077801;28;20384;-58
2022/03/09 03:34:43;;;;;;;3.58;2.55;;;-4.30;99.90;;;;;;5050578;28;20079;-56
2022/03/09 03:38:08;;;;;;;3.97;2.20;;;-4.40;99.90;;;;;;5079138;28;20649;-57
2022/03/09 03:41:34;;;;;;;4.63;2.60;;;-4.40;99.90;;;;;;5065750;28;20067;-58
2022/03/09 03:44:59;;;;;;;4.30;1.80;;;-4.40;99.90;;;;;;5085247;28;20036;-57
2022/03/09 03:48:24;;;;;;;2.80;1.98;;;-4.40;99.90;;;;;;5079553;28;20123;-58
2022/03/09 03:51:50;;;;;;;6.10;1.80;;;-4.40;99.90;;;;;;5066859;28;20028;-57
2022/03/09 03:55:15;;;;;;;2.70;1.70;;;-4.40;99.90;;;;;;5086951;28;20116;-57
2022/03/09 03:58:40;;;;;;;3.13;1.60;;;-4.40;99.90;;;;;;5084592;28;20028;-58
2022/03/09 04:02:06;;;;;;;3.53;1.83;;;-4.40;99.90;;;;;;5064404;28;20485;-58
2022/03/09 04:05:31;;;;;;;2.50;1.77;;;-4.40;99.90;;;;;;5083198;28;20036;-55
2022/03/09 04:08:56;;;;;;;4.72;2.10;;;-4.40;99.90;;;;;;5089988;28;20046;-56
2022/03/09 04:12:23;;;;;;;2.00;1.30;;;-4.40;99.90;;;;;;5078247;28;20040;-58
2022/03/09 04:15:47;;;;;;;5.07;2.30;;;-4.50;99.90;;;;;;5083482;28;20040;-58
2022/03/09 04:19:13;;;;;;;4.28;1.85;;;-4.40;99.90;;;;;;5089892;28;20507;-56
2022/03/09 04:22:38;;;;;;;3.50;1.70;;;-4.50;99.90;;;;;;5067145;28;20045;-57
2022/03/09 04:26:06;;;;;;;3.50;1.98;;;-4.60;99.90;;;;;;5076949;28;20465;-57
2022/03/09 04:29:29;;;;;;;1.58;1.30;;;-4.60;99.90;;;;;;5073036;28;20036;-58
2022/03/09 04:32:54;;;;;;;1.98;1.38;;;-4.60;99.90;;;;;;5081844;28;20087;-56
2022/03/09 04:36:19;;;;;;;3.13;2.00;;;-4.70;99.90;;;;;;5082191;28;20059;-57
2022/03/09 04:39:45;;;;;;;2.70;1.25;;;-4.70;99.90;;;;;;5049375;28;20036;-59
2022/03/09 04:43:10;;;;;;;5.50;2.08;;;-4.70;99.90;;;;;;5078399;28;20051;-58
2022/03/09 04:46:35;;;;;;;2.05;1.45;;;-4.70;99.90;;;;;;5064647;28;20037;-57
2022/03/09 04:50:01;;;;;;;2.75;1.58;;;-4.80;99.90;;;;;;5078343;28;20043;-57
2022/03/09 04:53:26;;;;;;;7.18;2.05;;;-4.80;99.90;;;;;;5075476;28;20435;-57
2022/03/09 04:56:52;;;;;;;2.40;1.58;;;-4.80;99.90;;;;;;5087205;28;20071;-57
2022/03/09 05:00:17;;;;;;;4.00;1.80;;;-4.80;99.90;;;;;;5085214;28;20530;-57
2022/03/09 05:03:42;;;;;;;2.85;1.52;;;-4.90;99.90;;;;;;5085584;28;20079;-55
2022/03/09 05:07:08;;;;;;;4.32;2.03;;;-4.90;99.90;;;;;;5078301;28;20051;-58
2022/03/09 05:10:33;;;;;;;5.05;2.30;;;-4.90;99.90;;;;;;5070998;28;20086;-56
2022/03/09 05:13:58;;;;;;;5.05;2.42;;;-4.90;99.90;;;;;;5085689;28;20040;-56
2022/03/09 05:17:24;;;;;;;5.18;2.75;;;-4.90;99.90;;;;;;5083333;28;20476;-58
2022/03/09 05:20:49;;;;;;;8.50;3.60;;;-4.80;99.90;;;;;;5070734;28;20040;-58
2022/03/09 05:23:35;;;;;;;7.05;2.85;;;-4.90;99.90;;;;;;5080499;28;20508;-52
2022/03/09 05:26:01;;;;;;;4.85;2.97;;;-4.80;99.90;;;;;;5087178;28;20124;-53
2022/03/09 05:28:26;;;;;;;3.92;2.55;;;-4.80;99.90;;;;;;5082586;28;20566;-50
2022/03/09 05:30:52;;;;;;;4.32;2.75;;;-4.80;99.90;;;;;;5068351;28;20064;-51
2022/03/09 05:33:17;;;;;;;3.50;1.80;;;-4.80;99.90;;;;;;5088357;28;20036;-48
2022/03/09 05:35:43;;;;;;;3.55;2.53;;;-4.80;99.90;;;;;;5069586;28;20535;-48
2022/03/09 05:38:08;;;;;;;6.70;2.50;;;-4.80;99.90;;;;;;5088420;28;20092;-47
2022/03/09 05:40:34;;;;;;;5.25;1.85;;;-4.80;99.90;;;;;;5070898;28;20428;-51
2022/03/09 05:42:59;;;;;;;7.25;2.60;;;-4.80;99.90;;;;;;5088142;28;20042;-47
2022/03/09 05:45:25;;;;;;;5.03;2.60;;;-4.80;99.90;;;;;;5072553;28;20077;-50
2022/03/09 05:47:50;;;;;;;4.00;2.65;;;-4.70;99.90;;;;;;5089046;28;20107;-49
2022/03/09 05:50:56;;;;;;;5.70;2.22;;;-4.80;99.90;;;;;;5078257;28;20043;-47
2022/03/09 05:54:21;;;;;;;3.90;2.15;;;-4.70;99.90;;;;;;5067463;28;20052;-50
2022/03/09 05:57:46;;;;;;;4.78;2.17;;;-4.60;99.90;;;;;;5065113;28;20549;-51
2022/03/09 06:01:12;;;;;;;5.38;1.77;;;-4.50;99.90;;;;;;5082856;28;20040;-53
2022/03/09 06:04:37;;;;;;;5.28;2.80;;;-4.40;99.90;;;;;;5052558;28;20659;-51
2022/03/09 06:08:03;;;;;;;5.18;2.78;;;-4.40;99.90;;;;;;5073384;28;20098;-54
2022/03/09 06:11:28;;;;;;;3.90;2.00;;;-4.30;99.90;;;;;;5072509;28;20042;-51
2022/03/09 06:14:55;;;;;;;5.55;2.88;;;-4.20;99.90;;;;;;5080265;28;20048;-51
2022/03/09 06:18:22;;;;;;;6.88;2.80;;;-4.00;99.90;;;;;;5079679;28;20024;-52
2022/03/09 06:21:47;;;;;;;5.57;3.35;;;-2.30;99.90;;;;;;5068751;28;20041;-51
2022/03/09 06:25:14;;;;;;;8.20;4.72;;;0.30;99.90;;;;;;5084426;28;20079;-53
2022/03/09 06:28:38;;;;;;;8.27;4.20;;;3.00;99.90;;;;;;5077132;28;20036;-54
2022/03/09 06:32:04;;;;;;;6.82;3.88;;;5.20;90.60;;;;;;5081727;28;20421;-51
2022/03/09 06:35:28;;;;;;;6.55;3.63;;;7.10;64.20;;;;;;5077783;28;20036;-49
2022/03/09 06:38:54;;;;;;;6.13;3.90;;;8.60;52.00;;;;;;5090524;28;20488;-50
2022/03/09 06:42:22;;;;;;;6.45;3.63;;;9.90;38.20;;;;;;5085870;28;20028;-49
2022/03/09 06:45:48;;;;;;;5.28;3.42;;;11.00;31.00;;;;;;5077783;28;20039;-49
2022/03/09 06:49:13;;;;;;;6.90;3.63;;;12.10;25.70;;;;;;5050729;28;20503;-55
2022/03/09 06:52:39;;;;;;;12.48;4.50;;;13.00;22.20;;;;;;5079264;28;20063;-56
2022/03/09 06:56:04;;;;;;;8.65;3.63;;;13.80;18.90;;;;;;5069541;28;20025;-55
2022/03/09 06:59:29;;;;;;;5.53;3.42;;;14.50;19.40;;;;;;5084956;28;20020;-57
2022/03/09 07:02:56;;;;;;;5.65;2.97;;;15.10;20.50;;;;;;5078969;28;20535;-54
2022/03/09 07:06:20;;;;;;;7.10;3.55;;;15.80;19.90;;;;;;5072944;28;20043;-56
2022/03/09 07:09:45;;;;;;;6.78;4.25;;;16.10;13.30;;;;;;5079160;28;20028;-53
2022/03/09 07:13:11;;;;;;;6.47;3.72;;;16.80;13.20;;;;;;5078858;28;20411;-52
2022/03/09 07:16:36;;;;;;;6.22;4.18;;;17.40;10.90;;;;;;5064421;28;20111;-55
2022/03/09 07:20:01;;;;;;;10.63;3.67;;;17.80;10.00;;;;;;5079158;28;20453;-54
2022/03/09 07:23:27;;;;;;;8.43;3.63;;;18.20;10.30;;;;;;5090082;28;20028;-53
2022/03/09 07:26:53;;;;;;;8.70;3.30;;;19.00;10.20;;;;;;5077077;28;20044;-53
2022/03/09 07:30:17;;;;;;;9.07;3.80;;;19.30;7.60;;;;;;5086291;28;20059;-52
2022/03/09 07:33:43;;;;;;;4.80;3.60;;;19.90;8.80;;;;;;5051977;28;20531;-50
2022/03/09 07:37:08;;;;;;;4.40;3.38;;;20.40;6.80;;;;;;5068079;28;20059;-54
2022/03/09 07:40:34;;;;;;;4.60;3.40;;;20.90;9.40;;;;;;5067807;28;20150;-56
2022/03/09 07:43:59;;;;;;;5.35;3.65;;;21.20;8.90;;;;;;5082192;28;20179;-52
2022/03/09 07:47:24;;;;;;;5.07;4.38;;;21.50;9.70;;;;;;5086008;28;20036;-48
2022/03/09 07:50:50;;;;;;;5.88;3.97;;;22.00;6.80;;;;;;5078124;28;20028;-49
2022/03/09 07:54:16;;;;;;;6.65;3.80;;;21.90;3.40;;;;;;5049393;28;20528;-53
2022/03/09 07:57:41;;;;;;;6.70;4.07;;;22.20;2.90;;;;;;5076324;28;20032;-51
2022/03/09 08:01:06;;;;;;;5.03;3.75;;;22.60;3.80;;;;;;5068066;28;20071;-45
2022/03/09 08:04:31;;;;;;;5.40;4.05;;;22.80;2.00;;;;;;5077997;28;20032;-50
2022/03/09 08:07:57;;;;;;;6.15;4.75;;;23.00;3.10;;;;;;5078236;28;20453;-48
2022/03/09 08:11:22;;;;;;;6.18;4.47;;;23.50;2.00;;;;;;5065639;28;20044;-49
2022/03/09 08:14:47;;;;;;;5.82;4.20;;;23.70;2.00;;;;;;5048959;28;20041;-46
2022/03/09 08:18:13;;;;;;;5.88;4.70;;;24.00;4.80;;;;;;5049091;28;20079;-47
2022/03/09 08:21:38;;;;;;;7.93;4.97;;;24.20;3.30;;;;;;5063170;28;20042;-48
2022/03/09 08:25:03;;;;;;;7.63;5.72;;;24.10;2.20;;;;;;5084749;28;20044;-47
2022/03/09 08:28:29;;;;;;;9.18;6.22;;;24.40;2.10;;;;;;5074112;28;20059;-47
2022/03/09 08:31:55;;;;;;;9.25;6.25;;;24.60;3.60;;;;;;5071367;28;20657;-46
2022/03/09 08:35:20;;;;;;;7.72;5.80;;;24.80;1.80;;;;;;5048531;28;20041;-48
2022/03/09 08:38:45;;;;;;;8.18;5.63;;;25.20;1.90;;;;;;5080666;28;20396;-52
2022/03/09 08:42:10;;;;;;;7.05;5.07;;;25.40;2.30;;;;;;5081338;28;20040;-52
2022/03/09 08:45:36;;;;;;;6.70;5.10;;;25.50;1.10;;;;;;5082769;28;20387;-53
2022/03/09 08:49:01;;;;;;;5.78;4.75;;;25.60;1.00;;;;;;5049110;28;20045;-48
2022/03/09 08:52:26;;;;;;;5.78;4.55;;;25.80;1.10;;;;;;5079963;28;20028;-50
2022/03/09 08:55:52;;;;;;;5.03;3.72;;;26.20;1.00;;;;;;5070491;28;20503;-45
2022/03/09 08:59:17;;;;;;;3.35;2.78;;;26.30;1.00;;;;;;5048420;28;20615;-50
2022/03/09 09:02:43;;;;;;;3.08;2.63;;;25.30;1.00;;;;;;5077221;28;20119;-51
2022/03/09 09:06:08;;;;;;;2.78;2.50;;;25.20;1.00;;;;;;5063462;28;20069;-49
2022/03/09 09:09:33;;;;;;;4.43;2.72;;;25.30;1.00;;;;;;5047870;28;20029;-49
2022/03/09 09:12:59;;;;;;;3.58;2.67;;;25.50;1.00;;;;;;5077037;28;20055;-49
2022/03/09 09:16:24;;;;;;;3.38;2.75;;;25.80;1.00;;;;;;5067560;28;20415;-48
2022/03/09 09:19:49;;;;;;;3.05;2.50;;;25.80;1.00;;;;;;5073828;28;20028;-50
2022/03/09 09:23:15;;;;;;;3.80;2.22;;;25.20;1.00;;;;;;5084325;28;20403;-49
2022/03/09 09:26:40;;;;;;;4.40;3.05;;;25.20;1.00;;;;;;5069262;28;20052;-52
2022/03/09 09:30:06;;;;;;;3.83;2.78;;;25.20;1.00;;;;;;5082366;28;20032;-50
2022/03/09 09:33:31;;;;;;;2.75;2.45;;;24.90;1.00;;;;;;5075702;28;20127;-52
2022/03/09 09:36:57;;;;;;;3.13;2.25;;;25.60;1.00;;;;;;5066700;28;20044;-49
2022/03/09 09:40:23;;;;;;;4.13;2.75;;;25.50;1.00;;;;;;5049952;28;20399;-47
2022/03/09 09:43:47;;;;;;;3.67;2.58;;;25.30;1.00;;;;;;5087246;28;20036;-47
2022/03/09 09:47:14;;;;;;;4.88;2.65;;;24.90;1.00;;;;;;5064680;28;20636;-50
2022/03/09 09:50:38;;;;;;;3.33;2.75;;;25.10;1.00;;;;;;5077600;28;20028;-48
2022/03/09 09:54:03;;;;;;;3.78;2.40;;;24.80;1.00;;;;;;5047134;28;20605;-49
2022/03/09 09:57:28;;;;;;;5.07;2.65;;;24.80;1.00;;;;;;5082311;28;20032;-45
2022/03/09 10:00:54;;;;;;;3.60;2.53;;;24.90;1.00;;;;;;5081577;28;20076;-45
2022/03/09 10:04:19;;;;;;;4.15;3.40;;;25.00;1.00;;;;;;5076207;28;20459;-47
2022/03/09 10:07:45;;;;;;;4.63;3.08;;;24.90;1.00;;;;;;5082990;28;20039;-49
2022/03/09 10:11:13;;;;;;;4.30;3.30;;;24.10;1.00;;;;;;5064247;28;20036;-48
2022/03/09 10:14:39;;;;;;;6.82;2.85;;;23.40;1.00;;;;;;5077317;28;20621;-46
2022/03/09 10:18:04;;;;;;;5.28;3.67;;;23.40;1.00;;;;;;5075664;28;20032;-49
2022/03/09 10:21:29;;;;;;;4.97;2.70;;;22.60;1.00;;;;;;5062391;28;20036;-49
2022/03/09 10:24:54;;;;;;;4.57;3.47;;;22.40;1.00;;;;;;5075893;28;20101;-49
2022/03/09 10:28:20;;;;;;;5.85;3.42;;;21.30;1.00;;;;;;5075814;28;20032;-49
2022/03/09 10:31:51;;;;;;;5.20;2.50;;;20.00;1.00;;;;;;5067087;28;20029;-53
2022/03/09 10:35:16;;;;;;;4.53;3.00;;;19.00;1.00;;;;;;5082235;28;20537;-46
2022/03/09 10:38:43;;;;;;;4.88;2.65;;;16.50;2.60;;;;;;5047214;28;20090;-45
2022/03/09 10:42:13;;;;;;;5.10;2.72;;;14.70;4.50;;;;;;5078472;28;20047;-49
2022/03/09 10:45:39;;;;;;;3.78;2.90;;;13.60;6.40;;;;;;5054157;28;20495;-50
2022/03/09 10:49:08;;;;;;;7.95;4.15;;;12.80;7.60;;;;;;5087184;28;20093;-45
2022/03/09 10:52:32;;;;;;;3.50;2.50;;;12.30;9.00;;;;;;5079036;28;20123;-48
2022/03/09 10:56:01;;;;;;;5.13;2.70;;;11.90;9.80;;;;;;5085166;28;20016;-50
2022/03/09 10:59:06;;;;;;;;;;;11.70;11.30;;;;;;5087522;28;20032;-52
2022/03/09 11:02:41;;;;;;;4.43;3.10;;;11.50;12.70;;;;;;5050360;28;19997;-46
2022/03/09 11:06:17;;;;;;;3.85;2.17;;;11.30;11.90;;;;;;5084727;28;20040;-48
2022/03/09 11:09:42;;;;;;;5.45;3.28;;;11.10;11.80;;;;;;5083866;28;20036;-54
2022/03/09 11:13:06;;;;;;;7.07;3.50;;;11.10;12.80;;;;;;5078493;28;20480;-48
2022/03/09 11:16:31;;;;;;;3.75;2.67;;;11.10;13.30;;;;;;5065430;28;20028;-47
2022/03/09 11:19:57;;;;;;;4.07;3.08;;;11.10;14.40;;;;;;5084609;28;20105;-47
2022/03/09 11:22:57;;;;;;;3.35;2.50;;;11.00;12.60;;;;;;5078136;28;20602;-52
2022/03/09 11:25:24;;;;;;;6.90;2.80;;;10.90;12.50;;;;;;5038649;28;20113;-58
2022/03/09 11:27:53;;;;;;;4.82;2.72;;;10.90;13.30;;;;;;5069248;28;20032;-58
2022/03/09 11:30:29;;;;;;;6.63;3.17;;;10.90;13.10;;;;;;5080550;28;20021;-59
2022/03/09 11:33:32;;;;;;;4.20;2.58;;;10.80;14.00;;;;;;5049703;28;20041;-56
2022/03/09 11:36:21;;;;;;;3.72;2.42;;;10.90;14.10;;;;;;5078962;28;20138;-59
2022/03/09 11:39:07;;;;;;;9.98;4.88;;;10.80;12.80;;;;;;5049584;28;20047;-59
2022/03/09 11:42:20;;;;;;;3.65;2.83;;;10.80;13.70;;;;;;5075916;28;20044;-59
2022/03/09 11:45:14;;;;;;;5.00;2.80;;;10.70;13.90;;;;;;5061603;28;20198;-54
2022/03/09 11:48:25;;;;;;;5.60;2.85;;;10.70;14.10;;;;;;5049547;28;20098;-58
2022/03/09 11:51:51;;;;;;;5.32;2.85;;;10.80;13.40;;;;;;5079873;28;20043;-57
2022/03/09 11:55:19;;;;;;;4.90;2.92;;;10.80;13.80;;;;;;5075806;28;20746;-58
2022/03/09 11:58:05;;;;;;;;;;;10.70;13.90;;;;;;5049822;28;20059;-58
2022/03/09 12:01:39;;;;;;;7.03;3.60;;;10.70;14.80;;;;;;5080286;28;19912;-58
2022/03/09 12:04:40;;;;;;;3.65;2.33;;;10.70;14.00;;;;;;5050051;28;20535;-54
2022/03/09 12:07:29;;;;;;;5.32;3.25;;;10.60;14.10;;;;;;5089316;28;20024;-58
2022/03/09 12:10:40;;;;;;;8.00;3.67;;;10.60;14.90;;;;;;5063719;28;20572;-57
2022/03/09 12:14:08;;;;;;;4.32;3.10;;;10.70;14.70;;;;;;5049102;28;20049;-56
2022/03/09 12:17:20;;;;;;;;;;;10.70;14.20;;;;;;5077916;28;20569;-58
2022/03/09 12:20:44;;;;;;;4.38;2.42;;;10.60;15.00;;;;;;5068177;28;19912;-58
2022/03/09 12:24:04;;;;;;;7.25;4.03;;;10.60;14.50;;;;;;5077477;28;20036;-55
2022/03/09 12:27:42;;;;;;;5.63;3.70;;;10.50;15.40;;;;;;5074004;28;20043;-59
2022/03/09 12:31:02;;;;;;;6.15;3.10;;;10.40;15.50;;;;;;5066939;28;20028;-57
2022/03/09 12:34:28;;;;;;;5.18;3.35;;;10.50;16.50;;;;;;5064454;28;20075;-59
2022/03/09 12:37:53;;;;;;;5.20;3.22;;;10.60;16.10;;;;;;5081354;28;20369;-55
2022/03/09 12:41:19;;;;;;;4.85;2.90;;;10.70;16.60;;;;;;5048758;28;20041;-57
2022/03/09 12:44:44;;;;;;;3.83;2.50;;;10.80;15.70;;;;;;5077322;28;20499;-58
2022/03/09 12:48:09;;;;;;;3.67;2.28;;;10.80;15.80;;;;;;5080549;28;20040;-56
2022/03/09 12:51:35;;;;;;;4.60;2.60;;;10.60;15.20;;;;;;5077062;28;20032;-55
2022/03/09 12:54:39;;;;;;;5.57;3.10;;;10.60;15.60;;;;;;5085381;28;20133;-58
2022/03/09 12:58:04;;;;;;;4.18;2.67;;;10.60;15.70;;;;;;5061537;28;20518;-56
2022/03/09 13:01:39;;;;;;;4.28;2.70;;;10.60;14.90;;;;;;5053866;28;20036;-58
2022/03/09 13:05:04;;;;;;;4.78;2.92;;;10.60;15.40;;;;;;5087215;28;20032;-56
2022/03/09 13:08:39;;;;;;;5.18;3.28;;;10.60;14.60;;;;;;5079482;28;20038;-55
2022/03/09 13:12:05;;;;;;;5.32;3.00;;;10.70;14.90;;;;;;5064896;28;20029;-54
2022/03/09 13:15:30;;;;;;;4.60;3.42;;;10.70;14.10;;;;;;5084056;28;20094;-55
2022/03/09 13:18:56;;;;;;;4.53;2.95;;;10.70;13.70;;;;;;5084678;28;20034;-55
2022/03/09 13:22:21;;;;;;;4.10;2.63;;;10.60;14.20;;;;;;5069194;28;20381;-57
2022/03/09 13:25:49;;;;;;;3.92;2.72;;;10.60;13.00;;;;;;5080103;28;20044;-57
2022/03/09 13:29:19;;;;;;;5.88;3.22;;;10.50;12.80;;;;;;5083275;28;20446;-56
2022/03/09 13:32:49;;;;;;;4.38;2.97;;;10.60;11.50;;;;;;5073389;28;20036;-56
2022/03/09 13:36:14;;;;;;;5.15;2.97;;;10.50;11.50;;;;;;5065179;28;20037;-57
2022/03/09 13:39:39;;;;;;;3.65;2.60;;;10.50;11.10;;;;;;5087498;28;20125;-57
2022/03/09 13:42:45;;;;;;;4.72;3.15;;;10.50;12.00;;;;;;5080047;28;20546;-52
2022/03/09 13:46:10;;;;;;;4.13;2.70;;;10.50;12.40;;;;;;5047945;28;20064;-54
2022/03/09 13:50:00;;;;;;;6.55;2.80;;;10.50;12.20;;;;;;5087316;28;20024;-52
2022/03/09 13:53:05;;;;;;;4.50;2.95;;;10.60;13.00;;;;;;5085852;28;20102;-56
2022/03/09 13:56:16;;;;;;;4.10;2.42;;;10.50;13.20;;;;;;5053597;28;20021;-55
2022/03/09 13:59:45;;;;;;;5.05;3.05;;;10.50;13.10;;;;;;5087506;28;20093;-53
2022/03/09 14:03:13;;;;;;;4.47;3.08;;;10.50;12.70;;;;;;5081255;28;20491;-57
2022/03/09 14:06:41;;;;;;;4.00;2.88;;;10.50;12.80;;;;;;5079314;28;20503;-53
2022/03/09 14:10:05;;;;;;;4.20;3.10;;;10.50;12.90;;;;;;5073837;28;20032;-57
2022/03/09 14:13:34;;;;;;;5.63;3.63;;;10.50;13.00;;;;;;5047387;28;20059;-53
2022/03/09 14:16:39;;;;;;;;;;;10.50;12.90;;;;;;5072708;28;20028;-54
2022/03/09 14:20:06;;;;;;;5.43;3.83;;;10.50;12.90;;;;;;5076247;28;19908;-57
2022/03/09 14:23:33;;;;;;;5.70;3.22;;;10.50;13.30;;;;;;5076739;28;20035;-56
2022/03/09 14:26:58;;;;;;;4.32;2.97;;;10.50;13.20;;;;;;5085291;28;20044;-55
2022/03/09 14:30:23;;;;;;;4.35;2.25;;;10.50;13.00;;;;;;5079832;28;20040;-55
2022/03/09 14:33:49;;;;;;;5.28;2.60;;;10.40;13.20;;;;;;5067239;28;20712;-57
2022/03/09 14:37:14;;;;;;;4.25;2.65;;;10.30;13.40;;;;;;5075406;28;20033;-57
2022/03/09 14:40:43;;;;;;;3.63;2.47;;;10.30;13.30;;;;;;5079565;28;20040;-56
2022/03/09 14:44:08;;;;;;;4.03;2.80;;;10.40;13.60;;;;;;5079873;28;20040;-57
2022/03/09 14:47:33;;;;;;;7.45;2.92;;;10.40;13.20;;;;;;5074239;28;20039;-57
2022/03/09 14:50:59;;;;;;;5.55;3.25;;;10.40;13.20;;;;;;5079715;28;20044;-54
2022/03/09 14:54:24;;;;;;;6.10;3.25;;;10.40;13.00;;;;;;5090655;28;20052;-55
2022/03/09 14:57:49;;;;;;;6.40;2.88;;;10.40;14.30;;;;;;5078373;28;20068;-57
2022/03/09 15:00:35;;;;;;;6.00;3.67;;;10.30;15.10;;;;;;5084829;28;20062;-54
2022/03/09 15:03:03;;;;;;;9.25;3.92;;;10.30;15.80;;;;;;5086952;28;20472;-53
2022/03/09 15:05:28;;;;;;;5.78;3.78;;;10.30;16.90;;;;;;5090738;28;20031;-53
2022/03/09 15:07:54;;;;;;;5.50;4.00;;;10.20;17.80;;;;;;5088672;28;20034;-57
2022/03/09 15:10:20;;;;;;;5.32;3.90;;;10.20;18.30;;;;;;5090044;28;20054;-57
2022/03/09 15:12:45;;;;;;;6.65;4.13;;;10.20;18.40;;;;;;5088613;28;20067;-56
2022/03/09 15:15:11;;;;;;;9.13;3.80;;;10.10;18.90;;;;;;5090346;28;20028;-59
2022/03/09 15:17:36;;;;;;;4.50;3.40;;;10.10;18.60;;;;;;5088629;28;20036;-55
2022/03/09 15:20:02;;;;;;;6.82;3.47;;;10.00;18.30;;;;;;5090472;28;20564;-56
2022/03/09 15:22:29;;;;;;;7.47;4.78;;;10.00;18.90;;;;;;5088167;28;20107;-56
2022/03/09 15:24:54;;;;;;;6.72;4.07;;;9.90;19.20;;;;;;5090005;28;20044;-58
2022/03/09 15:27:20;;;;;;;7.30;3.83;;;9.90;19.30;;;;;;5080441;28;20024;-55
2022/03/09 15:29:46;;;;;;;8.05;4.18;;;9.80;19.40;;;;;;5089603;28;20028;-56
2022/03/09 15:32:11;;;;;;;5.38;3.60;;;9.80;19.40;;;;;;5088024;28;20495;-55
2022/03/09 15:34:41;;;;;;;9.63;3.88;;;9.70;19.10;;;;;;5089265;28;20028;-56
2022/03/09 15:37:07;;;;;;;7.65;3.83;;;9.70;18.90;;;;;;5088051;28;20035;-55
2022/03/09 15:40:13;;;;;;;5.53;3.53;;;9.60;19.70;;;;;;5090230;28;20482;-55
2022/03/09 15:43:38;;;;;;;5.85;3.10;;;9.60;19.10;;;;;;5073382;28;20048;-52
2022/03/09 15:47:04;;;;;;;7.05;3.53;;;9.50;19.50;;;;;;5078198;28;20040;-56
2022/03/09 15:50:29;;;;;;;5.65;2.95;;;9.40;19.70;;;;;;5049432;28;20041;-53
2022/03/09 15:53:54;;;;;;;4.97;2.83;;;9.30;20.00;;;;;;5072673;28;20055;-56
2022/03/09 15:57:20;;;;;;;9.57;3.60;;;9.20;20.10;;;;;;5078004;28;20400;-55
2022/03/09 16:00:45;;;;;;;4.78;3.30;;;9.20;20.00;;;;;;5088936;28;20028;-56
2022/03/09 16:04:10;;;;;;;6.60;4.07;;;9.10;20.00;;;;;;5077225;28;20033;-56
2022/03/09 16:07:36;;;;;;;7.22;3.60;;;9.00;20.10;;;;;;5083761;28;20109;-55
2022/03/09 16:11:01;;;;;;;4.57;3.15;;;8.90;19.90;;;;;;5088869;28;20044;-54
2022/03/09 16:14:26;;;;;;;5.15;3.45;;;8.80;20.00;;;;;;5081080;28;20052;-53
2022/03/09 16:17:52;;;;;;;3.90;2.60;;;8.70;20.50;;;;;;5083465;28;20510;-53
2022/03/09 16:21:17;;;;;;;4.55;2.88;;;8.50;20.70;;;;;;5048895;28;20037;-57
2022/03/09 16:24:43;;;;;;;5.35;3.35;;;8.40;20.20;;;;;;5083023;28;20120;-56
2022/03/09 16:28:08;;;;;;;6.35;3.45;;;8.30;20.00;;;;;;5058651;28;20425;-58
2022/03/09 16:31:33;;;;;;;4.25;2.90;;;8.20;20.10;;;;;;5071957;28;20120;-57
2022/03/09 16:35:00;;;;;;;6.30;3.70;;;8.00;20.00;;;;;;5085171;28;20047;-56
2022/03/09 16:38:24;;;;;;;8.93;3.83;;;7.90;20.30;;;;;;5066384;28;20041;-56
2022/03/09 16:41:49;;;;;;;6.05;3.53;;;7.80;20.60;;;;;;5084875;28;20028;-57
2022/03/09 16:45:15;;;;;;;6.70;3.45;;;7.70;21.20;;;;;;5077106;28;20031;-55
2022/03/09 16:48:40;;;;;;;4.60;3.10;;;7.60;21.20;;;;;;5069732;28;20039;-56
2022/03/09 16:52:05;;;;;;;6.40;3.45;;;7.40;21.70;;;;;;5077352;28;20036;-55
2022/03/09 16:55:31;;;;;;;4.82;2.75;;;7.20;22.10;;;;;;5077274;28;20099;-56
2022/03/09 16:58:56;;;;;;;6.20;3.35;;;7.00;23.20;;;;;;5062270;28;20032;-52
2022/03/09 17:02:22;;;;;;;3.88;2.67;;;6.70;24.10;;;;;;5077047;28;20035;-57
2022/03/09 17:05:47;;;;;;;4.32;2.83;;;6.50;24.40;;;;;;5088173;28;20032;-53
2022/03/09 17:09:12;;;;;;;3.45;2.25;;;6.30;24.70;;;;;;5076712;28;20474;-57
2022/03/09 17:12:38;;;;;;;6.43;2.97;;;6.10;25.60;;;;;;5074589;28;20036;-51
2022/03/09 17:16:05;;;;;;;6.00;2.88;;;5.90;26.20;;;;;;5087982;28;20705;-54
2022/03/09 17:19:29;;;;;;;5.65;2.53;;;5.70;26.20;;;;;;5080444;28;20047;-52
2022/03/09 17:22:54;;;;;;;7.00;3.35;;;5.60;28.20;;;;;;5074779;28;20024;-55